sensor_id;sensor_type;location;lat;lon;timestamp;P1;durP1;ratioP1;P2;durP2;ratioP2
46122;SDS011;31856;-35.404;149.120;2022-12-24T00:01:38;1.65;;;0.65;;
46122;SDS011;31856;-35.404;149.120;2022-12-24T00:04:08;1.63;;;0.60;;
46122;SDS011;31856;-35.404;149.120;2022-12-24T00:06:38;4.00;;;0.80;;
46122;SDS011;31856;-35.404;149.120;2022-12-24T00:09:08;3.30;;;0.80;;
46122;SDS011;31856;-35.404;149.120;2022-12-24T00:11:38;2.42;;;0.60;;
46122;SDS011;31856;-35.404;149.120;2022-12-24T00:14:08;19.00;;;1.83;;
46122;SDS011;31856;-35.404;149.120;2022-12-24T00:16:38;4.07;;;0.65;;
46122;SDS011;31856;-35.404;149.120;2022-12-24T00:19:08;2.03;;;0.60;;
46122;SDS011;31856;-35.404;149.120;2022-12-24T00:21:38;1.48;;;0.63;;
46122;SDS011;31856;-35.404;149.120;2022-12-24T00:24:08;20.20;;;1.38;;
46122;SDS011;31856;-35.404;149.120;2022-12-24T00:26:38;6.45;;;0.80;;
46122;SDS011;31856;-35.404;149.120;2022-12-24T00:29:09;7.82;;;0.80;;
46122;SDS011;31856;-35.404;149.120;2022-12-24T00:31:39;0.70;;;0.47;;
46122;SDS011;31856;-35.404;149.120;2022-12-24T00:34:09;2.67;;;0.77;;
46122;SDS011;31856;-35.404;149.120;2022-12-24T00:36:39;2.47;;;0.60;;
46122;SDS011;31856;-35.404;149.120;2022-12-24T00:39:09;4.38;;;0.60;;
46122;SDS011;31856;-35.404;149.120;2022-12-24T00:41:39;0.43;;;0.40;;
46122;SDS011;31856;-35.404;149.120;2022-12-24T00:44:10;1.00;;;0.60;;
46122;SDS011;31856;-35.404;149.120;2022-12-24T00:46:40;1.67;;;0.60;;
46122;SDS011;31856;-35.404;149.120;2022-12-24T00:49:11;1.05;;;0.50;;
46122;SDS011;31856;-35.404;149.120;2022-12-24T00:51:41;3.42;;;0.60;;
46122;SDS011;31856;-35.404;149.120;2022-12-24T00:54:12;3.35;;;0.60;;
46122;SDS011;31856;-35.404;149.120;2022-12-24T01:17:42;0.70;;;0.40;;
46122;SDS011;31856;-35.404;149.120;2022-12-24T01:20:14;0.80;;;0.50;;
46122;SDS011;31856;-35.404;149.120;2022-12-24T01:22:44;1.10;;;0.57;;
46122;SDS011;31856;-35.404;149.120;2022-12-24T01:25:16;1.15;;;0.50;;
46122;SDS011;31856;-35.404;149.120;2022-12-24T01:28:07;1.05;;;0.60;;
46122;SDS011;31856;-35.404;149.120;2022-12-24T01:30:39;3.25;;;0.70;;
46122;SDS011;31856;-35.404;149.120;2022-12-24T01:33:09;1.15;;;0.50;;
46122;SDS011;31856;-35.404;149.120;2022-12-24T01:35:39;1.55;;;0.60;;
46122;SDS011;31856;-35.404;149.120;2022-12-24T01:38:10;1.88;;;0.60;;
46122;SDS011;31856;-35.404;149.120;2022-12-24T01:40:40;1.67;;;0.75;;
46122;SDS011;31856;-35.404;149.120;2022-12-24T01:43:30;1.65;;;0.50;;
46122;SDS011;31856;-35.404;149.120;2022-12-24T01:46:01;1.73;;;0.40;;
46122;SDS011;31856;-35.404;149.120;2022-12-24T01:48:41;1.65;;;0.40;;
46122;SDS011;31856;-35.404;149.120;2022-12-24T01:54:02;0.57;;;0.50;;
46122;SDS011;31856;-35.404;149.120;2022-12-24T01:56:33;1.65;;;0.50;;
46122;SDS011;31856;-35.404;149.120;2022-12-24T01:59:05;0.77;;;0.43;;
46122;SDS011;31856;-35.404;149.120;2022-12-24T02:01:37;0.98;;;0.50;;
46122;SDS011;31856;-35.404;149.120;2022-12-24T02:06:49;1.30;;;0.50;;
46122;SDS011;31856;-35.404;149.120;2022-12-24T02:09:19;1.88;;;0.93;;
46122;SDS011;31856;-35.404;149.120;2022-12-24T02:11:49;1.13;;;0.60;;
46122;SDS011;31856;-35.404;149.120;2022-12-24T02:14:19;1.50;;;0.47;;
46122;SDS011;31856;-35.404;149.120;2022-12-24T02:22:01;1.10;;;0.60;;
46122;SDS011;31856;-35.404;149.120;2022-12-24T02:24:47;0.85;;;0.50;;
46122;SDS011;31856;-35.404;149.120;2022-12-24T02:30:03;1.48;;;0.60;;
46122;SDS011;31856;-35.404;149.120;2022-12-24T02:37:53;1.58;;;0.60;;
46122;SDS011;31856;-35.404;149.120;2022-12-24T02:40:30;1.38;;;1.23;;
46122;SDS011;31856;-35.404;149.120;2022-12-24T02:43:08;1.85;;;0.70;;
46122;SDS011;31856;-35.404;149.120;2022-12-24T02:45:39;2.67;;;0.80;;
46122;SDS011;31856;-35.404;149.120;2022-12-24T02:48:11;0.95;;;0.70;;
46122;SDS011;31856;-35.404;149.120;2022-12-24T02:50:55;1.10;;;0.60;;
46122;SDS011;31856;-35.404;149.120;2022-12-24T02:53:25;1.45;;;0.60;;
46122;SDS011;31856;-35.404;149.120;2022-12-24T03:11:49;2.17;;;0.90;;
46122;SDS011;31856;-35.404;149.120;2022-12-24T03:14:22;1.35;;;0.60;;
46122;SDS011;31856;-35.404;149.120;2022-12-24T03:16:55;1.60;;;0.85;;
46122;SDS011;31856;-35.404;149.120;2022-12-24T03:22:11;1.25;;;0.93;;
46122;SDS011;31856;-35.404;149.120;2022-12-24T03:24:42;2.38;;;0.68;;
46122;SDS011;31856;-35.404;149.120;2022-12-24T03:27:12;1.25;;;0.60;;
46122;SDS011;31856;-35.404;149.120;2022-12-24T03:29:43;0.73;;;0.50;;
46122;SDS011;31856;-35.404;149.120;2022-12-24T03:32:14;1.08;;;0.75;;
46122;SDS011;31856;-35.404;149.120;2022-12-24T03:34:44;1.13;;;0.50;;
46122;SDS011;31856;-35.404;149.120;2022-12-24T03:37:13;2.10;;;0.60;;
46122;SDS011;31856;-35.404;149.120;2022-12-24T03:39:44;1.65;;;0.55;;
46122;SDS011;31856;-35.404;149.120;2022-12-24T03:42:14;0.82;;;0.50;;
46122;SDS011;31856;-35.404;149.120;2022-12-24T03:44:44;1.35;;;0.52;;
46122;SDS011;31856;-35.404;149.120;2022-12-24T03:47:14;1.48;;;0.60;;
46122;SDS011;31856;-35.404;149.120;2022-12-24T03:49:44;1.30;;;0.60;;
46122;SDS011;31856;-35.404;149.120;2022-12-24T03:52:50;1.20;;;0.60;;
46122;SDS011;31856;-35.404;149.120;2022-12-24T03:55:20;0.85;;;0.57;;
46122;SDS011;31856;-35.404;149.120;2022-12-24T03:57:51;0.93;;;0.70;;
46122;SDS011;31856;-35.404;149.120;2022-12-24T04:00:21;2.28;;;0.98;;
46122;SDS011;31856;-35.404;149.120;2022-12-24T04:02:52;1.50;;;0.60;;
46122;SDS011;31856;-35.404;149.120;2022-12-24T04:05:22;1.20;;;0.60;;
46122;SDS011;31856;-35.404;149.120;2022-12-24T04:07:52;0.95;;;0.70;;
46122;SDS011;31856;-35.404;149.120;2022-12-24T04:10:22;1.90;;;0.90;;
46122;SDS011;31856;-35.404;149.120;2022-12-24T04:12:52;1.10;;;0.70;;
46122;SDS011;31856;-35.404;149.120;2022-12-24T04:15:22;1.52;;;0.60;;
46122;SDS011;31856;-35.404;149.120;2022-12-24T04:17:52;0.93;;;0.40;;
46122;SDS011;31856;-35.404;149.120;2022-12-24T04:20:22;1.73;;;0.68;;
46122;SDS011;31856;-35.404;149.120;2022-12-24T04:22:53;0.80;;;0.50;;
46122;SDS011;31856;-35.404;149.120;2022-12-24T04:25:23;1.58;;;0.68;;
46122;SDS011;31856;-35.404;149.120;2022-12-24T04:27:53;1.48;;;0.70;;
46122;SDS011;31856;-35.404;149.120;2022-12-24T04:30:23;1.77;;;0.80;;
46122;SDS011;31856;-35.404;149.120;2022-12-24T04:32:54;1.40;;;0.55;;
46122;SDS011;31856;-35.404;149.120;2022-12-24T04:35:24;0.80;;;0.63;;
46122;SDS011;31856;-35.404;149.120;2022-12-24T04:37:54;1.80;;;0.68;;
46122;SDS011;31856;-35.404;149.120;2022-12-24T04:40:24;0.90;;;0.60;;
46122;SDS011;31856;-35.404;149.120;2022-12-24T04:42:54;1.58;;;0.70;;
46122;SDS011;31856;-35.404;149.120;2022-12-24T04:45:24;1.50;;;0.80;;
46122;SDS011;31856;-35.404;149.120;2022-12-24T04:47:55;1.75;;;0.50;;
46122;SDS011;31856;-35.404;149.120;2022-12-24T04:50:25;1.40;;;0.60;;
46122;SDS011;31856;-35.404;149.120;2022-12-24T04:52:55;1.45;;;0.80;;
46122;SDS011;31856;-35.404;149.120;2022-12-24T04:55:25;1.60;;;0.82;;
46122;SDS011;31856;-35.404;149.120;2022-12-24T04:57:56;1.58;;;0.63;;
46122;SDS011;31856;-35.404;149.120;2022-12-24T05:00:26;2.00;;;0.70;;
46122;SDS011;31856;-35.404;149.120;2022-12-24T05:02:56;0.90;;;0.52;;
46122;SDS011;31856;-35.404;149.120;2022-12-24T05:05:28;1.05;;;0.73;;
46122;SDS011;31856;-35.404;149.120;2022-12-24T05:07:58;0.70;;;0.50;;
46122;SDS011;31856;-35.404;149.120;2022-12-24T05:10:28;2.53;;;0.60;;
46122;SDS011;31856;-35.404;149.120;2022-12-24T05:12:59;0.77;;;0.60;;
46122;SDS011;31856;-35.404;149.120;2022-12-24T05:15:30;1.27;;;0.70;;
46122;SDS011;31856;-35.404;149.120;2022-12-24T05:18:00;2.28;;;0.65;;
46122;SDS011;31856;-35.404;149.120;2022-12-24T05:20:30;2.35;;;0.50;;
46122;SDS011;31856;-35.404;149.120;2022-12-24T05:23:00;1.20;;;0.50;;
46122;SDS011;31856;-35.404;149.120;2022-12-24T05:25:48;2.03;;;0.98;;
46122;SDS011;31856;-35.404;149.120;2022-12-24T05:28:36;0.98;;;0.50;;
46122;SDS011;31856;-35.404;149.120;2022-12-24T05:31:06;2.88;;;0.80;;
46122;SDS011;31856;-35.404;149.120;2022-12-24T05:33:36;0.90;;;0.60;;
46122;SDS011;31856;-35.404;149.120;2022-12-24T05:36:06;0.73;;;0.50;;
46122;SDS011;31856;-35.404;149.120;2022-12-24T05:38:36;2.65;;;0.85;;
46122;SDS011;31856;-35.404;149.120;2022-12-24T05:41:06;0.80;;;0.50;;
46122;SDS011;31856;-35.404;149.120;2022-12-24T05:43:40;2.42;;;0.50;;
46122;SDS011;31856;-35.404;149.120;2022-12-24T05:46:11;0.82;;;0.60;;
46122;SDS011;31856;-35.404;149.120;2022-12-24T05:48:42;2.08;;;0.77;;
46122;SDS011;31856;-35.404;149.120;2022-12-24T05:51:13;1.20;;;0.60;;
46122;SDS011;31856;-35.404;149.120;2022-12-24T05:53:46;0.90;;;0.55;;
46122;SDS011;31856;-35.404;149.120;2022-12-24T05:56:21;0.60;;;0.43;;
46122;SDS011;31856;-35.404;149.120;2022-12-24T05:58:52;0.90;;;0.50;;
46122;SDS011;31856;-35.404;149.120;2022-12-24T06:01:23;3.55;;;0.65;;
46122;SDS011;31856;-35.404;149.120;2022-12-24T06:03:53;1.60;;;0.60;;
46122;SDS011;31856;-35.404;149.120;2022-12-24T06:06:25;0.85;;;0.60;;
46122;SDS011;31856;-35.404;149.120;2022-12-24T06:08:56;1.10;;;0.60;;
46122;SDS011;31856;-35.404;149.120;2022-12-24T06:11:26;3.40;;;0.90;;
46122;SDS011;31856;-35.404;149.120;2022-12-24T06:13:56;1.08;;;0.70;;
46122;SDS011;31856;-35.404;149.120;2022-12-24T06:16:26;0.70;;;0.60;;
46122;SDS011;31856;-35.404;149.120;2022-12-24T06:18:56;0.70;;;0.50;;
46122;SDS011;31856;-35.404;149.120;2022-12-24T06:21:26;3.10;;;0.70;;
46122;SDS011;31856;-35.404;149.120;2022-12-24T06:23:56;0.95;;;0.45;;
46122;SDS011;31856;-35.404;149.120;2022-12-24T06:26:26;1.40;;;0.70;;
46122;SDS011;31856;-35.404;149.120;2022-12-24T06:28:56;2.40;;;0.60;;
46122;SDS011;31856;-35.404;149.120;2022-12-24T06:31:26;1.58;;;0.57;;
46122;SDS011;31856;-35.404;149.120;2022-12-24T06:33:56;1.75;;;0.70;;
46122;SDS011;31856;-35.404;149.120;2022-12-24T06:36:26;3.00;;;0.60;;
46122;SDS011;31856;-35.404;149.120;2022-12-24T06:38:57;0.93;;;0.50;;
46122;SDS011;31856;-35.404;149.120;2022-12-24T06:41:28;2.58;;;0.60;;
46122;SDS011;31856;-35.404;149.120;2022-12-24T06:43:58;0.57;;;0.47;;
46122;SDS011;31856;-35.404;149.120;2022-12-24T06:46:27;0.60;;;0.50;;
46122;SDS011;31856;-35.404;149.120;2022-12-24T06:48:58;3.20;;;0.80;;
46122;SDS011;31856;-35.404;149.120;2022-12-24T06:51:28;0.65;;;0.45;;
46122;SDS011;31856;-35.404;149.120;2022-12-24T06:53:58;1.70;;;0.95;;
46122;SDS011;31856;-35.404;149.120;2022-12-24T06:56:28;1.52;;;0.73;;
46122;SDS011;31856;-35.404;149.120;2022-12-24T06:58:59;1.67;;;0.70;;
46122;SDS011;31856;-35.404;149.120;2022-12-24T07:01:31;0.73;;;0.52;;
46122;SDS011;31856;-35.404;149.120;2022-12-24T07:04:02;2.60;;;0.57;;
46122;SDS011;31856;-35.404;149.120;2022-12-24T07:06:32;1.75;;;0.60;;
46122;SDS011;31856;-35.404;149.120;2022-12-24T07:09:02;1.38;;;0.60;;
46122;SDS011;31856;-35.404;149.120;2022-12-24T07:11:33;0.95;;;0.55;;
46122;SDS011;31856;-35.404;149.120;2022-12-24T07:14:03;1.02;;;0.63;;
46122;SDS011;31856;-35.404;149.120;2022-12-24T07:16:33;0.70;;;0.50;;
46122;SDS011;31856;-35.404;149.120;2022-12-24T07:19:03;1.23;;;0.57;;
46122;SDS011;31856;-35.404;149.120;2022-12-24T07:21:36;1.30;;;0.57;;
46122;SDS011;31856;-35.404;149.120;2022-12-24T07:24:06;1.55;;;0.65;;
46122;SDS011;31856;-35.404;149.120;2022-12-24T07:26:36;4.55;;;0.70;;
46122;SDS011;31856;-35.404;149.120;2022-12-24T07:29:06;1.85;;;0.55;;
46122;SDS011;31856;-35.404;149.120;2022-12-24T07:31:36;0.77;;;0.60;;
46122;SDS011;31856;-35.404;149.120;2022-12-24T07:34:06;1.10;;;0.50;;
46122;SDS011;31856;-35.404;149.120;2022-12-24T07:36:36;0.85;;;0.50;;
46122;SDS011;31856;-35.404;149.120;2022-12-24T07:39:06;1.00;;;0.60;;
46122;SDS011;31856;-35.404;149.120;2022-12-24T07:41:35;0.90;;;0.50;;
46122;SDS011;31856;-35.404;149.120;2022-12-24T07:44:10;0.90;;;0.50;;
46122;SDS011;31856;-35.404;149.120;2022-12-24T07:46:41;1.70;;;0.77;;
46122;SDS011;31856;-35.404;149.120;2022-12-24T07:49:11;1.50;;;0.60;;
46122;SDS011;31856;-35.404;149.120;2022-12-24T07:51:41;1.27;;;0.60;;
46122;SDS011;31856;-35.404;149.120;2022-12-24T07:54:11;0.80;;;0.60;;
46122;SDS011;31856;-35.404;149.120;2022-12-24T07:56:42;1.10;;;0.80;;
46122;SDS011;31856;-35.404;149.120;2022-12-24T07:59:12;1.30;;;0.60;;
46122;SDS011;31856;-35.404;149.120;2022-12-24T08:01:42;1.27;;;0.70;;
46122;SDS011;31856;-35.404;149.120;2022-12-24T08:04:13;1.13;;;0.60;;
46122;SDS011;31856;-35.404;149.120;2022-12-24T08:06:43;1.77;;;0.75;;
46122;SDS011;31856;-35.404;149.120;2022-12-24T08:09:13;3.08;;;0.95;;
46122;SDS011;31856;-35.404;149.120;2022-12-24T08:11:44;2.00;;;0.80;;
46122;SDS011;31856;-35.404;149.120;2022-12-24T08:14:18;3.63;;;1.00;;
46122;SDS011;31856;-35.404;149.120;2022-12-24T08:16:48;1.13;;;0.50;;
46122;SDS011;31856;-35.404;149.120;2022-12-24T08:19:19;2.33;;;0.90;;
46122;SDS011;31856;-35.404;149.120;2022-12-24T08:21:50;1.10;;;0.63;;
46122;SDS011;31856;-35.404;149.120;2022-12-24T08:24:20;1.30;;;0.90;;
46122;SDS011;31856;-35.404;149.120;2022-12-24T08:26:50;3.28;;;0.85;;
46122;SDS011;31856;-35.404;149.120;2022-12-24T08:29:20;2.70;;;0.60;;
46122;SDS011;31856;-35.404;149.120;2022-12-24T08:51:29;2.40;;;0.70;;
46122;SDS011;31856;-35.404;149.120;2022-12-24T08:53:59;1.38;;;0.70;;
46122;SDS011;31856;-35.404;149.120;2022-12-24T08:56:31;1.25;;;0.75;;
46122;SDS011;31856;-35.404;149.120;2022-12-24T08:59:01;1.77;;;0.80;;
46122;SDS011;31856;-35.404;149.120;2022-12-24T09:01:32;1.23;;;0.80;;
46122;SDS011;31856;-35.404;149.120;2022-12-24T09:04:03;2.63;;;0.90;;
46122;SDS011;31856;-35.404;149.120;2022-12-24T09:06:33;2.25;;;0.73;;
46122;SDS011;31856;-35.404;149.120;2022-12-24T09:09:04;1.20;;;0.70;;
46122;SDS011;31856;-35.404;149.120;2022-12-24T09:11:35;1.25;;;0.60;;
46122;SDS011;31856;-35.404;149.120;2022-12-24T09:14:06;1.23;;;0.82;;
46122;SDS011;31856;-35.404;149.120;2022-12-24T09:16:36;2.58;;;0.70;;
46122;SDS011;31856;-35.404;149.120;2022-12-24T09:19:06;1.50;;;0.70;;
46122;SDS011;31856;-35.404;149.120;2022-12-24T09:21:36;2.10;;;0.70;;
46122;SDS011;31856;-35.404;149.120;2022-12-24T09:24:06;1.35;;;0.70;;
46122;SDS011;31856;-35.404;149.120;2022-12-24T09:26:36;1.58;;;0.60;;
46122;SDS011;31856;-35.404;149.120;2022-12-24T09:29:09;1.70;;;0.90;;
46122;SDS011;31856;-35.404;149.120;2022-12-24T09:31:39;1.60;;;0.90;;
46122;SDS011;31856;-35.404;149.120;2022-12-24T09:34:09;1.13;;;0.80;;
46122;SDS011;31856;-35.404;149.120;2022-12-24T09:36:39;2.30;;;0.70;;
46122;SDS011;31856;-35.404;149.120;2022-12-24T09:39:09;2.53;;;0.80;;
46122;SDS011;31856;-35.404;149.120;2022-12-24T09:46:55;1.98;;;1.10;;
46122;SDS011;31856;-35.404;149.120;2022-12-24T09:49:39;3.88;;;1.50;;
46122;SDS011;31856;-35.404;149.120;2022-12-24T09:52:11;2.70;;;1.40;;
46122;SDS011;31856;-35.404;149.120;2022-12-24T09:54:47;1.98;;;1.30;;
46122;SDS011;31856;-35.404;149.120;2022-12-24T09:57:27;2.85;;;1.40;;
46122;SDS011;31856;-35.404;149.120;2022-12-24T09:59:58;2.95;;;1.48;;
46122;SDS011;31856;-35.404;149.120;2022-12-24T10:02:29;3.88;;;1.90;;
46122;SDS011;31856;-35.404;149.120;2022-12-24T10:05:01;4.30;;;1.50;;
46122;SDS011;31856;-35.404;149.120;2022-12-24T10:07:39;3.75;;;1.50;;
46122;SDS011;31856;-35.404;149.120;2022-12-24T10:12:53;3.05;;;1.60;;
46122;SDS011;31856;-35.404;149.120;2022-12-24T10:15:31;3.15;;;1.52;;
46122;SDS011;31856;-35.404;149.120;2022-12-24T10:18:10;3.58;;;1.70;;
46122;SDS011;31856;-35.404;149.120;2022-12-24T10:21:04;1.83;;;1.48;;
46122;SDS011;31856;-35.404;149.120;2022-12-24T10:28:59;4.03;;;1.90;;
46122;SDS011;31856;-35.404;149.120;2022-12-24T10:31:32;3.08;;;1.70;;
46122;SDS011;31856;-35.404;149.120;2022-12-24T10:34:05;2.47;;;1.70;;
46122;SDS011;31856;-35.404;149.120;2022-12-24T10:36:39;5.35;;;1.80;;
46122;SDS011;31856;-35.404;149.120;2022-12-24T10:39:27;3.83;;;1.95;;
46122;SDS011;31856;-35.404;149.120;2022-12-24T10:41:58;3.30;;;1.70;;
46122;SDS011;31856;-35.404;149.120;2022-12-24T10:44:29;3.15;;;1.52;;
46122;SDS011;31856;-35.404;149.120;2022-12-24T10:47:00;2.38;;;1.65;;
46122;SDS011;31856;-35.404;149.120;2022-12-24T10:49:32;3.53;;;1.90;;
46122;SDS011;31856;-35.404;149.120;2022-12-24T10:52:21;3.85;;;1.70;;
46122;SDS011;31856;-35.404;149.120;2022-12-24T10:55:04;5.45;;;1.90;;
46122;SDS011;31856;-35.404;149.120;2022-12-24T10:57:36;3.72;;;1.80;;
46122;SDS011;31856;-35.404;149.120;2022-12-24T11:00:18;3.58;;;2.00;;
46122;SDS011;31856;-35.404;149.120;2022-12-24T11:02:48;5.72;;;1.98;;
46122;SDS011;31856;-35.404;149.120;2022-12-24T11:05:32;4.43;;;1.95;;
46122;SDS011;31856;-35.404;149.120;2022-12-24T11:08:13;3.00;;;1.92;;
46122;SDS011;31856;-35.404;149.120;2022-12-24T11:10:54;3.42;;;1.60;;
46122;SDS011;31856;-35.404;149.120;2022-12-24T11:13:51;3.00;;;1.75;;
46122;SDS011;31856;-35.404;149.120;2022-12-24T11:18:58;4.30;;;2.10;;
46122;SDS011;31856;-35.404;149.120;2022-12-24T11:21:33;2.47;;;2.00;;
46122;SDS011;31856;-35.404;149.120;2022-12-24T11:24:07;5.03;;;1.95;;
46122;SDS011;31856;-35.404;149.120;2022-12-24T11:26:39;5.88;;;1.80;;
46122;SDS011;31856;-35.404;149.120;2022-12-24T11:29:14;4.75;;;1.80;;
46122;SDS011;31856;-35.404;149.120;2022-12-24T11:31:45;5.22;;;1.80;;
46122;SDS011;31856;-35.404;149.120;2022-12-24T11:34:29;2.80;;;1.63;;
46122;SDS011;31856;-35.404;149.120;2022-12-24T11:37:13;3.42;;;1.50;;
46122;SDS011;31856;-35.404;149.120;2022-12-24T11:39:46;4.55;;;1.67;;
46122;SDS011;31856;-35.404;149.120;2022-12-24T12:20:50;4.88;;;2.13;;
46122;SDS011;31856;-35.404;149.120;2022-12-24T12:23:39;3.70;;;1.70;;
46122;SDS011;31856;-35.404;149.120;2022-12-24T12:33:49;3.08;;;1.92;;
46122;SDS011;31856;-35.404;149.120;2022-12-24T12:36:35;4.32;;;2.20;;
46122;SDS011;31856;-35.404;149.120;2022-12-24T12:39:08;3.08;;;1.65;;
46122;SDS011;31856;-35.404;149.120;2022-12-24T12:41:44;5.15;;;1.50;;
46122;SDS011;31856;-35.404;149.120;2022-12-24T12:47:02;3.08;;;1.73;;
46122;SDS011;31856;-35.404;149.120;2022-12-24T12:57:50;3.63;;;1.98;;
46122;SDS011;31856;-35.404;149.120;2022-12-24T13:00:23;4.88;;;1.70;;
46122;SDS011;31856;-35.404;149.120;2022-12-24T13:05:35;4.30;;;1.95;;
46122;SDS011;31856;-35.404;149.120;2022-12-24T13:21:28;3.70;;;2.00;;
46122;SDS011;31856;-35.404;149.120;2022-12-24T13:24:14;3.20;;;1.67;;
46122;SDS011;31856;-35.404;149.120;2022-12-24T13:29:52;4.10;;;1.80;;
46122;SDS011;31856;-35.404;149.120;2022-12-24T13:32:38;3.33;;;2.00;;
46122;SDS011;31856;-35.404;149.120;2022-12-24T13:37:48;4.18;;;2.15;;
46122;SDS011;31856;-35.404;149.120;2022-12-24T13:53:17;2.53;;;1.90;;
46122;SDS011;31856;-35.404;149.120;2022-12-24T13:55:54;2.47;;;1.90;;
46122;SDS011;31856;-35.404;149.120;2022-12-24T13:58:24;3.22;;;1.98;;
46122;SDS011;31856;-35.404;149.120;2022-12-24T14:00:56;3.92;;;1.77;;
46122;SDS011;31856;-35.404;149.120;2022-12-24T14:06:21;2.85;;;1.75;;
46122;SDS011;31856;-35.404;149.120;2022-12-24T14:08:52;3.60;;;2.20;;
46122;SDS011;31856;-35.404;149.120;2022-12-24T14:11:24;4.68;;;2.10;;
46122;SDS011;31856;-35.404;149.120;2022-12-24T14:16:48;4.68;;;2.08;;
46122;SDS011;31856;-35.404;149.120;2022-12-24T14:19:22;4.45;;;2.08;;
46122;SDS011;31856;-35.404;149.120;2022-12-24T14:22:02;3.35;;;2.00;;
46122;SDS011;31856;-35.404;149.120;2022-12-24T14:24:34;3.42;;;2.00;;
46122;SDS011;31856;-35.404;149.120;2022-12-24T14:27:16;2.53;;;1.70;;
46122;SDS011;31856;-35.404;149.120;2022-12-24T14:32:53;3.72;;;1.98;;
46122;SDS011;31856;-35.404;149.120;2022-12-24T14:35:24;5.10;;;2.15;;
46122;SDS011;31856;-35.404;149.120;2022-12-24T14:40:28;4.53;;;1.90;;
46122;SDS011;31856;-35.404;149.120;2022-12-24T14:46:04;3.45;;;2.00;;
46122;SDS011;31856;-35.404;149.120;2022-12-24T14:53:46;4.03;;;2.20;;
46122;SDS011;31856;-35.404;149.120;2022-12-24T14:56:21;3.47;;;1.85;;
46122;SDS011;31856;-35.404;149.120;2022-12-24T14:58:53;5.32;;;1.95;;
46122;SDS011;31856;-35.404;149.120;2022-12-24T15:06:50;3.13;;;1.98;;
46122;SDS011;31856;-35.404;149.120;2022-12-24T15:09:22;3.53;;;2.00;;
46122;SDS011;31856;-35.404;149.120;2022-12-24T15:11:55;3.17;;;1.80;;
46122;SDS011;31856;-35.404;149.120;2022-12-24T15:14:26;7.03;;;2.30;;
46122;SDS011;31856;-35.404;149.120;2022-12-24T15:16:59;2.90;;;1.73;;
46122;SDS011;31856;-35.404;149.120;2022-12-24T15:19:35;5.75;;;2.05;;
46122;SDS011;31856;-35.404;149.120;2022-12-24T15:22:18;3.25;;;2.00;;
46122;SDS011;31856;-35.404;149.120;2022-12-24T15:24:52;3.13;;;2.00;;
46122;SDS011;31856;-35.404;149.120;2022-12-24T15:27:24;5.05;;;1.75;;
46122;SDS011;31856;-35.404;149.120;2022-12-24T15:29:57;3.47;;;2.05;;
46122;SDS011;31856;-35.404;149.120;2022-12-24T15:32:27;2.70;;;2.00;;
46122;SDS011;31856;-35.404;149.120;2022-12-24T15:34:57;3.90;;;2.15;;
46122;SDS011;31856;-35.404;149.120;2022-12-24T15:37:28;3.65;;;2.45;;
46122;SDS011;31856;-35.404;149.120;2022-12-24T15:42:30;5.63;;;1.90;;
46122;SDS011;31856;-35.404;149.120;2022-12-24T15:47:38;3.10;;;2.03;;
46122;SDS011;31856;-35.404;149.120;2022-12-24T15:50:17;3.85;;;2.00;;
46122;SDS011;31856;-35.404;149.120;2022-12-24T15:52:48;3.05;;;1.75;;
46122;SDS011;31856;-35.404;149.120;2022-12-24T15:55:39;2.58;;;1.98;;
46122;SDS011;31856;-35.404;149.120;2022-12-24T15:58:20;2.72;;;1.80;;
46122;SDS011;31856;-35.404;149.120;2022-12-24T16:01:00;3.58;;;2.15;;
46122;SDS011;31856;-35.404;149.120;2022-12-24T16:03:30;4.90;;;2.17;;
46122;SDS011;31856;-35.404;149.120;2022-12-24T16:06:10;2.40;;;1.88;;
46122;SDS011;31856;-35.404;149.120;2022-12-24T16:08:41;3.08;;;2.00;;
46122;SDS011;31856;-35.404;149.120;2022-12-24T16:13:52;2.25;;;2.05;;
46122;SDS011;31856;-35.404;149.120;2022-12-24T16:16:34;7.32;;;2.13;;
46122;SDS011;31856;-35.404;149.120;2022-12-24T16:19:05;3.42;;;2.30;;
46122;SDS011;31856;-35.404;149.120;2022-12-24T16:21:37;3.42;;;2.38;;
46122;SDS011;31856;-35.404;149.120;2022-12-24T16:24:15;3.00;;;2.00;;
46122;SDS011;31856;-35.404;149.120;2022-12-24T16:26:45;3.65;;;2.10;;
46122;SDS011;31856;-35.404;149.120;2022-12-24T16:29:15;2.83;;;2.10;;
46122;SDS011;31856;-35.404;149.120;2022-12-24T16:31:50;2.67;;;2.00;;
46122;SDS011;31856;-35.404;149.120;2022-12-24T16:34:28;3.05;;;2.55;;
46122;SDS011;31856;-35.404;149.120;2022-12-24T16:36:59;4.93;;;3.63;;
46122;SDS011;31856;-35.404;149.120;2022-12-24T16:39:30;5.57;;;3.78;;
46122;SDS011;31856;-35.404;149.120;2022-12-24T16:42:02;4.38;;;3.03;;
46122;SDS011;31856;-35.404;149.120;2022-12-24T16:44:53;6.93;;;2.70;;
46122;SDS011;31856;-35.404;149.120;2022-12-24T16:47:27;4.00;;;2.58;;
46122;SDS011;31856;-35.404;149.120;2022-12-24T16:50:09;4.57;;;2.42;;
46122;SDS011;31856;-35.404;149.120;2022-12-24T16:55:12;2.65;;;2.17;;
46122;SDS011;31856;-35.404;149.120;2022-12-24T16:57:42;4.28;;;2.20;;
46122;SDS011;31856;-35.404;149.120;2022-12-24T17:00:20;4.28;;;2.25;;
46122;SDS011;31856;-35.404;149.120;2022-12-24T17:02:50;5.05;;;2.70;;
46122;SDS011;31856;-35.404;149.120;2022-12-24T17:05:21;3.88;;;2.15;;
46122;SDS011;31856;-35.404;149.120;2022-12-24T17:07:51;3.90;;;2.30;;
46122;SDS011;31856;-35.404;149.120;2022-12-24T17:10:21;3.03;;;2.15;;
46122;SDS011;31856;-35.404;149.120;2022-12-24T17:12:51;3.25;;;2.10;;
46122;SDS011;31856;-35.404;149.120;2022-12-24T17:15:21;5.28;;;2.10;;
46122;SDS011;31856;-35.404;149.120;2022-12-24T17:17:51;4.45;;;2.67;;
46122;SDS011;31856;-35.404;149.120;2022-12-24T17:20:21;3.22;;;2.30;;
46122;SDS011;31856;-35.404;149.120;2022-12-24T17:22:51;4.35;;;2.60;;
46122;SDS011;31856;-35.404;149.120;2022-12-24T17:25:21;4.57;;;2.72;;
46122;SDS011;31856;-35.404;149.120;2022-12-24T17:27:51;5.32;;;2.75;;
46122;SDS011;31856;-35.404;149.120;2022-12-24T17:30:22;3.80;;;2.70;;
46122;SDS011;31856;-35.404;149.120;2022-12-24T17:32:52;4.82;;;2.90;;
46122;SDS011;31856;-35.404;149.120;2022-12-24T17:35:22;4.75;;;3.03;;
46122;SDS011;31856;-35.404;149.120;2022-12-24T17:37:51;4.50;;;2.60;;
46122;SDS011;31856;-35.404;149.120;2022-12-24T17:40:22;4.65;;;2.83;;
46122;SDS011;31856;-35.404;149.120;2022-12-24T17:42:52;4.53;;;2.42;;
46122;SDS011;31856;-35.404;149.120;2022-12-24T17:45:22;4.78;;;2.13;;
46122;SDS011;31856;-35.404;149.120;2022-12-24T17:47:52;2.78;;;2.10;;
46122;SDS011;31856;-35.404;149.120;2022-12-24T17:50:22;3.33;;;2.20;;
46122;SDS011;31856;-35.404;149.120;2022-12-24T17:52:52;5.55;;;2.60;;
46122;SDS011;31856;-35.404;149.120;2022-12-24T17:55:22;3.97;;;2.55;;
46122;SDS011;31856;-35.404;149.120;2022-12-24T17:57:52;4.18;;;2.42;;
46122;SDS011;31856;-35.404;149.120;2022-12-24T18:00:22;2.80;;;2.10;;
46122;SDS011;31856;-35.404;149.120;2022-12-24T18:02:59;3.55;;;2.40;;
46122;SDS011;31856;-35.404;149.120;2022-12-24T18:05:32;4.50;;;2.38;;
46122;SDS011;31856;-35.404;149.120;2022-12-24T18:08:02;2.95;;;2.30;;
46122;SDS011;31856;-35.404;149.120;2022-12-24T18:10:32;3.00;;;2.33;;
46122;SDS011;31856;-35.404;149.120;2022-12-24T18:13:02;4.03;;;2.45;;
46122;SDS011;31856;-35.404;149.120;2022-12-24T18:15:33;3.92;;;2.50;;
46122;SDS011;31856;-35.404;149.120;2022-12-24T18:18:04;4.65;;;2.50;;
46122;SDS011;31856;-35.404;149.120;2022-12-24T18:20:35;5.80;;;2.88;;